Time;durP1;ratioP1;P1;durP2;ratioP2;P2;SDS_P1;SDS_P2;PMS_P1;PMS_P2;Temp;Humidity;BMP_temperature;BMP_pressure;BME280_temperature;BME280_humidity;BME280_pressure;Samples;Min_cycle;Max_cycle;Signal;HPM_P1;HPM_P2
2024/01/07 00:02:48;;;;;;;23.80;15.10;;;;;;;-0.64;100.00;148507.34;13048636;22;20011;-80
2024/01/07 00:07:51;;;;;;;21.67;13.25;;;;;;;-0.66;100.00;148502.25;13051132;22;20019;-80
2024/01/07 00:12:53;;;;;;;18.63;14.65;;;;;;;-0.66;100.00;148503.53;13073811;22;20011;-81
2024/01/07 00:17:55;;;;;;;19.95;13.75;;;;;;;-0.80;100.00;148467.66;13044235;22;20007;-80
2024/01/07 00:22:58;;;;;;;20.98;15.07;;;;;;;-0.70;100.00;148493.28;13091377;22;20012;-81
2024/01/07 00:28:00;;;;;;;20.33;13.60;;;;;;;-0.78;100.00;148472.81;13048637;22;20034;-81
2024/01/07 00:33:01;;;;;;;14.27;11.98;;;;;;;-0.88;100.00;148448.50;13074474;22;20033;-81
2024/01/07 00:38:03;;;;;;;16.80;11.82;;;;;;;-0.88;100.00;148447.25;13049930;22;20453;-81
2024/01/07 00:43:05;;;;;;;19.05;12.02;;;;;;;-0.74;100.00;148481.78;13018656;22;20019;-80
2024/01/07 00:48:08;;;;;;;18.83;12.10;;;;;;;-0.92;100.00;148438.28;13046717;22;20023;-80
2024/01/07 00:53:09;;;;;;;16.55;11.95;;;;;;;-0.94;100.00;148433.13;13072541;22;20030;-79
2024/01/07 00:58:11;;;;;;;16.83;13.32;;;;;;;-0.91;100.00;148440.81;13049411;22;20047;-79
2024/01/07 01:03:15;;;;;;;17.08;12.50;;;;;;;-0.89;100.00;148444.63;13052334;22;20106;-80
2024/01/07 01:08:17;;;;;;;15.30;10.90;;;;;;;-0.89;100.00;148445.91;13024321;22;20015;-80
2024/01/07 01:13:18;;;;;;;21.20;11.82;;;;;;;-0.79;100.00;148471.53;13048850;22;20349;-80
2024/01/07 01:18:20;;;;;;;18.83;12.52;;;;;;;-1.04;100.00;148407.56;13024420;22;20023;-81
2024/01/07 01:23:22;;;;;;;17.55;11.82;;;;;;;-0.99;99.97;148419.06;13050828;22;20453;-80
2024/01/07 01:28:24;;;;;;;17.52;12.90;;;;;;;-0.88;98.89;148447.25;13026809;22;20023;-81
2024/01/07 01:33:25;;;;;;;15.05;11.73;;;;;;;-0.83;97.43;148461.28;13050680;22;20026;-80
2024/01/07 01:38:27;;;;;;;21.50;12.07;;;;;;;-0.84;98.40;148458.75;13073481;22;20475;-80
2024/01/07 01:43:29;;;;;;;15.30;11.02;;;;;;;-0.91;98.73;148440.81;13074241;22;20044;-80
2024/01/07 01:48:31;;;;;;;15.50;11.70;;;;;;;-0.86;98.63;148452.34;13053176;22;20049;-80
2024/01/07 01:53:33;;;;;;;15.80;13.20;;;;;;;-1.00;99.97;148416.53;13091852;22;20019;-78
2024/01/07 01:58:36;;;;;;;20.42;13.23;;;;;;;-1.19;100.00;148370.50;13070925;22;20023;-80
2024/01/07 02:03:38;;;;;;;16.77;12.70;;;;;;;-1.24;100.00;148357.66;13051965;22;20019;-80
2024/01/07 02:08:40;;;;;;;27.05;13.18;;;;;;;-1.12;100.00;148387.09;13025485;22;20039;-80
2024/01/07 02:13:41;;;;;;;15.52;10.88;;;;;;;-1.13;100.00;148384.53;13078151;22;20015;-80
2024/01/07 02:18:44;;;;;;;17.83;11.82;;;;;;;-1.23;100.00;148360.25;13051501;22;20030;-79
2024/01/07 02:23:46;;;;;;;14.18;11.35;;;;;;;-1.22;100.00;148362.81;13053275;22;20027;-80
2024/01/07 02:28:48;;;;;;;13.40;10.40;;;;;;;-1.31;99.87;148339.78;13050148;22;20457;-80
2024/01/07 02:33:49;;;;;;;16.20;11.02;;;;;;;-1.43;99.78;148310.38;13025014;22;20015;-80
2024/01/07 02:38:51;;;;;;;14.20;10.98;;;;;;;-1.39;100.00;148319.31;13076059;22;20099;-80
2024/01/07 02:43:53;;;;;;;20.95;12.15;;;;;;;-1.36;99.66;148328.28;13048889;22;20011;-81
2024/01/07 02:48:55;;;;;;;15.82;10.20;;;;;;;-1.32;98.12;148338.50;13077248;22;20019;-80
2024/01/07 02:53:57;;;;;;;17.20;11.20;;;;;;;-1.37;97.20;148325.72;13049392;22;20070;-80
2024/01/07 02:58:58;;;;;;;12.68;10.90;;;;;;;-1.40;96.58;148318.06;13046819;22;20334;-81
2024/01/07 03:04:00;;;;;;;15.25;8.93;;;;;;;-1.33;95.79;148334.66;13046139;22;20019;-80
2024/01/07 03:09:02;;;;;;;13.85;10.25;;;;;;;-1.38;95.96;148323.13;13047890;22;20044;-80
2024/01/07 03:14:04;;;;;;;11.20;9.85;;;;;;;-1.31;95.13;148341.06;13074321;22;20019;-81
2024/01/07 03:19:06;;;;;;;13.63;8.75;;;;;;;-1.35;93.71;148330.84;13074454;22;20015;-80
2024/01/07 03:24:08;;;;;;;12.80;9.40;;;;;;;-1.44;92.84;148307.81;13074267;22;20073;-81
2024/01/07 03:29:09;;;;;;;11.45;8.20;;;;;;;-1.42;91.99;148311.63;13046931;22;20020;-80
2024/01/07 03:34:11;;;;;;;13.32;9.00;;;;;;;-1.43;92.38;148310.38;13056614;22;20517;-81
2024/01/07 03:39:13;;;;;;;14.77;9.85;;;;;;;-1.48;92.88;148296.31;13044470;22;20035;-78
2024/01/07 03:44:15;;;;;;;13.90;9.50;;;;;;;-1.30;90.83;148342.34;13035446;22;20449;-81
2024/01/07 03:49:17;;;;;;;13.10;10.18;;;;;;;-1.28;91.19;148348.75;13049014;22;20019;-81
2024/01/07 03:54:19;;;;;;;9.80;8.60;;;;;;;-1.39;89.17;148320.59;13047072;22;20068;-82
2024/01/07 03:59:23;;;;;;;11.68;8.43;;;;;;;-1.47;90.67;148298.84;13076974;22;20019;-81
2024/01/07 04:04:25;;;;;;;11.50;8.40;;;;;;;-1.39;89.98;148320.59;13045137;22;20034;-80
2024/01/07 04:09:26;;;;;;;11.30;8.75;;;;;;;-1.46;90.18;148301.41;13072340;22;20015;-81
2024/01/07 04:14:29;;;;;;;11.38;8.65;;;;;;;-1.50;89.44;148291.22;13078428;22;20015;-81
2024/01/07 04:19:31;;;;;;;12.57;8.73;;;;;;;-1.50;89.67;148292.50;13050477;22;20023;-80
2024/01/07 04:24:33;;;;;;;11.63;8.65;;;;;;;-1.49;90.70;148293.75;13074097;22;20071;-80
2024/01/07 04:29:34;;;;;;;15.35;9.27;;;;;;;-1.33;89.91;148335.97;13076239;22;20064;-80
2024/01/07 04:34:36;;;;;;;9.13;7.55;;;;;;;-1.53;90.76;148284.81;13044599;22;20019;-80
2024/01/07 04:39:38;;;;;;;8.90;7.07;;;;;;;-1.58;90.82;148273.31;13074679;22;20016;-81
2024/01/07 04:44:40;;;;;;;9.23;7.43;;;;;;;-1.55;90.59;148279.66;13044949;22;20027;-80
2024/01/07 04:49:42;;;;;;;10.38;8.13;;;;;;;-1.62;89.94;148263.06;13046452;22;20023;-80
2024/01/07 04:54:43;;;;;;;12.35;7.80;;;;;;;-1.62;90.56;148263.06;13059643;22;20022;-79
2024/01/07 04:59:46;;;;;;;9.55;7.25;;;;;;;-1.53;90.14;148286.09;13091837;22;20024;-80
2024/01/07 05:04:48;;;;;;;7.70;5.80;;;;;;;-1.53;89.05;148286.09;13066797;22;20026;-80
2024/01/07 05:09:49;;;;;;;11.80;7.30;;;;;;;-1.71;89.29;148238.78;13062154;22;20026;-80
2024/01/07 05:14:52;;;;;;;12.00;7.75;;;;;;;-1.61;89.23;148264.34;13045253;22;20019;-81
2024/01/07 05:19:53;;;;;;;10.45;6.57;;;;;;;-1.66;87.90;148252.84;13041254;22;20456;-81
2024/01/07 05:24:55;;;;;;;7.63;6.47;;;;;;;-1.83;87.95;148209.38;13074137;22;20038;-81
2024/01/07 05:29:57;;;;;;;10.05;7.18;;;;;;;-1.91;88.48;148188.91;13050913;22;20030;-81
2024/01/07 05:34:59;;;;;;;9.77;6.53;;;;;;;-1.78;87.41;148222.16;13075746;22;20018;-81
2024/01/07 05:40:00;;;;;;;9.70;6.63;;;;;;;-1.89;87.51;148194.06;13045358;22;20102;-81
2024/01/07 05:45:03;;;;;;;10.40;6.80;;;;;;;-1.85;87.23;148204.28;13054723;22;20084;-81
2024/01/07 05:50:04;;;;;;;7.30;5.75;;;;;;;-1.87;87.44;148199.16;13078981;22;20441;-80
2024/01/07 05:55:06;;;;;;;10.18;5.90;;;;;;;-1.89;87.91;148194.06;13078851;22;20014;-80
2024/01/07 06:00:10;;;;;;;8.23;5.85;;;;;;;-1.94;87.32;148182.56;13023277;22;20461;-80
2024/01/07 06:05:15;;;;;;;5.25;4.75;;;;;;;-1.83;87.16;148210.66;13077784;22;20436;-80
2024/01/07 06:10:17;;;;;;;6.32;4.90;;;;;;;-1.81;86.25;148215.78;13048160;22;20041;-82
2024/01/07 06:15:18;;;;;;;5.50;4.63;;;;;;;-1.77;87.25;148224.75;13071508;22;20039;-80
2024/01/07 06:20:20;;;;;;;6.05;4.55;;;;;;;-1.88;88.18;148196.59;13068337;22;20080;-81
2024/01/07 06:25:24;;;;;;;5.88;5.13;;;;;;;-1.90;87.89;148192.78;13074660;22;20098;-81
2024/01/07 06:30:26;;;;;;;8.95;4.18;;;;;;;-1.99;87.63;148169.78;13075917;22;20022;-80
2024/01/07 06:35:28;;;;;;;6.82;4.32;;;;;;;-1.95;86.88;148178.69;13077730;22;20491;-80
2024/01/07 06:40:30;;;;;;;5.75;5.13;;;;;;;-2.06;85.61;148151.88;13050377;22;20023;-80
2024/01/07 06:45:32;;;;;;;5.72;4.80;;;;;;;-2.23;84.85;148109.69;13050321;22;20026;-80
2024/01/07 06:50:34;;;;;;;5.82;4.28;;;;;;;-2.32;86.92;148086.72;13077350;22;20022;-80
2024/01/07 06:55:36;;;;;;;4.72;3.20;;;;;;;-2.31;84.91;148089.25;13076313;22;20561;-81
2024/01/07 07:00:38;;;;;;;5.15;3.95;;;;;;;-2.38;85.44;148071.41;13074736;22;20021;-81
2024/01/07 07:05:40;;;;;;;7.05;3.45;;;;;;;-2.38;85.71;148071.41;13047883;22;20015;-80
2024/01/07 07:10:42;;;;;;;5.85;3.33;;;;;;;-2.35;84.88;148079.03;13024229;22;20023;-81
2024/01/07 07:15:44;;;;;;;4.32;3.03;;;;;;;-2.36;84.72;148076.47;13071150;22;20012;-80
2024/01/07 07:20:45;;;;;;;2.90;2.58;;;;;;;-2.44;85.19;148056.03;13060682;22;20027;-81
2024/01/07 07:25:47;;;;;;;3.63;2.47;;;;;;;-2.40;83.72;148067.53;13049681;22;20022;-81
2024/01/07 07:30:49;;;;;;;4.55;3.00;;;;;;;-2.40;82.50;148067.53;13045624;22;20019;-81
2024/01/07 07:35:53;;;;;;;2.97;2.67;;;;;;;-2.43;82.82;148058.63;13055539;22;20460;-81
2024/01/07 07:40:55;;;;;;;3.63;2.95;;;;;;;-2.40;82.25;148067.53;13054248;22;20023;-81
2024/01/07 07:45:56;;;;;;;3.85;2.65;;;;;;;-2.39;80.84;148068.81;13024439;22;20022;-80
2024/01/07 07:50:58;;;;;;;5.85;2.10;;;;;;;-2.24;80.64;148107.16;13076155;22;20019;-80
2024/01/07 07:56:01;;;;;;;5.57;2.92;;;;;;;-2.13;79.54;148133.97;13048583;22;20026;-81
2024/01/07 08:01:04;;;;;;;3.95;2.58;;;;;;;-2.16;80.33;148127.59;13075503;22;20070;-80
2024/01/07 08:06:06;;;;;;;2.38;2.17;;;;;;;-2.24;81.93;148105.88;13043466;22;20019;-81
2024/01/07 08:11:12;;;;;;;2.97;2.10;;;;;;;-2.34;81.66;148081.63;13073436;22;20023;-82
2024/01/07 08:16:14;;;;;;;3.75;2.33;;;;;;;-2.32;81.00;148087.97;13076271;22;20011;-82
2024/01/07 08:21:16;;;;;;;4.57;2.70;;;;;;;-2.29;79.75;148094.38;13078031;22;20424;-80
2024/01/07 08:26:19;;;;;;;2.30;1.85;;;;;;;-2.38;78.09;148072.66;13076293;22;20015;-78
2024/01/07 08:31:21;;;;;;;2.80;1.98;;;;;;;-2.41;78.90;148063.72;13007839;22;20050;-80
2024/01/07 08:36:23;;;;;;;3.90;1.80;;;;;;;-2.30;78.46;148093.13;13043746;22;20023;-80
2024/01/07 08:41:25;;;;;;;2.33;1.45;;;;;;;-2.38;77.73;148071.41;13054323;22;20027;-79
2024/01/07 08:46:26;;;;;;;2.45;1.70;;;;;;;-2.51;78.25;148038.19;13076211;22;20026;-82
2024/01/07 08:51:29;;;;;;;3.13;1.90;;;;;;;-2.48;77.82;148045.81;13103517;22;20019;-82
2024/01/07 08:56:30;;;;;;;2.47;1.52;;;;;;;-2.46;78.22;148050.94;13103749;22;20019;-80
2024/01/07 09:01:32;;;;;;;2.65;1.75;;;;;;;-2.32;76.95;148087.97;13069049;22;20072;-82
2024/01/07 09:06:34;;;;;;;2.65;1.58;;;;;;;-2.36;76.19;148076.47;13046925;22;20088;-80
2024/01/07 09:11:37;;;;;;;2.00;1.45;;;;;;;-2.33;76.28;148084.16;13075191;22;20068;-80
2024/01/07 09:16:39;;;;;;;2.13;1.45;;;;;;;-2.51;76.81;148038.19;13018664;22;20403;-80
2024/01/07 09:21:40;;;;;;;2.92;1.50;;;;;;;-2.59;75.27;148020.28;13074665;22;20397;-81
2024/01/07 09:26:42;;;;;;;2.53;1.55;;;;;;;-2.61;76.15;148013.91;13067166;22;20092;-78
2024/01/07 09:31:44;;;;;;;2.40;1.50;;;;;;;-2.53;76.15;148034.31;13072395;22;20015;-78
2024/01/07 09:36:46;;;;;;;3.30;2.42;;;;;;;-2.43;75.24;148058.63;13072064;22;20137;-79
2024/01/07 09:41:47;;;;;;;4.15;2.42;;;;;;;-2.60;76.08;148017.72;13070531;22;20068;-79
2024/01/07 09:46:51;;;;;;;2.22;2.00;;;;;;;-2.44;79.58;148056.03;13069076;22;20034;-78
2024/01/07 09:52:01;;;;;;;3.60;2.13;;;;;;;-2.38;76.25;148071.41;13080214;22;20327;-78
2024/01/07 09:57:07;;;;;;;2.22;1.83;;;;;;;-2.50;75.55;148040.72;13072200;22;20019;-80
2024/01/07 10:02:09;;;;;;;2.38;1.48;;;;;;;-2.39;74.85;148068.81;13050778;22;20015;-80
2024/01/07 10:07:11;;;;;;;2.28;1.60;;;;;;;-2.51;74.59;148038.19;13055021;22;20026;-80
2024/01/07 10:12:14;;;;;;;1.45;1.33;;;;;;;-2.60;75.50;148017.72;13086629;22;20019;-80
2024/01/07 10:17:16;;;;;;;2.45;1.50;;;;;;;-2.49;73.51;148044.53;13054948;22;20030;-79
2024/01/07 10:22:19;;;;;;;4.40;3.20;;;;;;;-2.52;73.97;148036.91;13046849;22;20451;-79
2024/01/07 10:27:22;;;;;;;4.35;2.17;;;;;;;-2.36;73.12;148077.75;13066863;22;20049;-78
2024/01/07 10:32:24;;;;;;;5.57;3.40;;;;;;;-2.53;72.81;148034.31;13065741;22;20094;-78
2024/01/07 10:37:26;;;;;;;2.78;1.50;;;;;;;-2.63;74.16;148010.06;13042044;22;20019;-80
2024/01/07 10:42:30;;;;;;;1.42;1.30;;;;;;;-2.68;73.10;147997.28;13067682;22;20011;-80
2024/01/07 10:47:36;;;;;;;2.55;1.60;;;;;;;-2.78;73.95;147970.50;13039676;22;20029;-80
2024/01/07 10:52:40;;;;;;;3.45;1.95;;;;;;;-2.66;71.83;148001.09;13045103;22;20016;-78
2024/01/07 10:57:49;;;;;;;3.47;2.15;;;;;;;-2.81;71.51;147964.09;13065521;22;20015;-80
2024/01/07 11:03:14;;;;;;;3.60;2.95;;;;;;;-3.02;71.09;147911.72;13039192;22;20027;-79
2024/01/07 11:08:23;;;;;;;2.28;1.48;;;;;;;-2.91;70.24;147938.56;13044406;22;20041;-78
2024/01/07 11:13:38;;;;;;;2.45;2.08;;;;;;;-3.01;70.54;147913.00;13071090;22;20018;-79
2024/01/07 11:18:46;;;;;;;3.33;1.75;;;;;;;-2.86;70.72;147951.31;13039744;22;20023;-78
2024/01/07 11:23:48;;;;;;;1.40;1.27;;;;;;;-2.84;69.91;147957.69;13060949;22;20468;-78
2024/01/07 11:28:56;;;;;;;1.98;1.23;;;;;;;-2.73;74.61;147983.25;13064077;22;20019;-79
2024/01/07 11:33:57;;;;;;;1.70;1.27;;;;;;;-2.62;66.84;148011.31;13075387;22;20516;-81
2024/01/07 11:39:02;;;;;;;2.17;1.30;;;;;;;-2.61;66.13;148013.91;13071706;22;20090;-80
2024/01/07 11:44:04;;;;;;;3.95;1.90;;;;;;;-2.73;66.26;147984.53;13044324;22;20015;-80
2024/01/07 11:49:09;;;;;;;2.50;1.23;;;;;;;-2.67;65.35;147998.56;13045513;22;20019;-80
2024/01/07 11:54:11;;;;;;;1.85;1.48;;;;;;;-2.69;65.98;147994.75;13072879;22;20011;-79
2024/01/07 11:59:13;;;;;;;1.77;1.40;;;;;;;-2.88;66.26;147946.19;13045465;22;20046;-80
2024/01/07 12:04:15;;;;;;;2.22;1.48;;;;;;;-2.88;65.63;147947.50;13048398;22;20015;-78
2024/01/07 12:09:17;;;;;;;4.13;1.70;;;;;;;-3.01;66.31;147913.00;13044487;22;20020;-79
2024/01/07 12:14:19;;;;;;;1.88;1.67;;;;;;;-3.08;66.89;147897.69;13064707;22;20011;-79
2024/01/07 12:19:22;;;;;;;2.47;1.30;;;;;;;-3.05;66.36;147904.09;13044682;22;20030;-79
2024/01/07 12:24:25;;;;;;;8.98;3.63;;;;;;;-2.83;67.09;147960.28;13048925;22;20056;-79
2024/01/07 12:29:26;;;;;;;1.90;1.40;;;;;;;-2.89;67.09;147944.91;13056418;22;20049;-79
2024/01/07 12:34:28;;;;;;;2.03;1.52;;;;;;;-3.12;67.65;147886.19;13043849;22;20030;-83
2024/01/07 12:39:30;;;;;;;3.88;2.50;;;;;;;-2.87;67.27;147950.06;13097963;22;20015;-82
2024/01/07 12:44:32;;;;;;;1.17;1.05;;;;;;;-2.89;66.82;147944.91;13058845;22;20080;-82
2024/01/07 12:49:34;;;;;;;1.88;1.25;;;;;;;-2.76;67.70;147976.84;13087497;22;20030;-83
2024/01/07 12:54:38;;;;;;;2.40;1.30;;;;;;;-2.74;67.15;147981.97;13092506;22;20019;-82
2024/01/07 12:59:40;;;;;;;1.85;1.20;;;;;;;-2.72;66.87;147987.06;13079816;22;20046;-82
2024/01/07 13:04:42;;;;;;;2.35;1.25;;;;;;;-2.68;67.41;147997.28;13081159;22;20045;-82
2024/01/07 13:09:44;;;;;;;2.58;1.00;;;;;;;-2.72;67.15;147987.06;13079438;22;20684;-82
2024/01/07 13:14:46;;;;;;;1.27;0.98;;;;;;;-2.76;67.43;147976.84;13050038;22;20045;-81
2024/01/07 13:19:48;;;;;;;1.10;0.75;;;;;;;-2.81;66.49;147964.09;13051603;22;20026;-82
2024/01/07 13:24:50;;;;;;;1.40;1.00;;;;;;;-2.82;67.49;147962.81;13077847;22;20012;-83
2024/01/07 13:29:52;;;;;;;3.95;1.40;;;;;;;-2.85;68.01;147953.88;13071604;22;20049;-82
2024/01/07 13:34:54;;;;;;;2.00;1.30;;;;;;;-2.61;67.33;148015.19;13043484;22;20019;-83
2024/01/07 13:39:57;;;;;;;3.17;1.10;;;;;;;-2.67;67.13;147998.56;13071049;22;20019;-82
2024/01/07 13:44:58;;;;;;;1.77;0.90;;;;;;;-2.77;67.54;147973.03;13071118;22;20097;-82
2024/01/07 13:50:00;;;;;;;2.38;1.40;;;;;;;-2.68;67.44;147997.28;13078717;22;20015;-84
2024/01/07 13:55:03;;;;;;;1.55;0.93;;;;;;;-2.77;66.64;147974.31;13047886;22;20388;-83
2024/01/07 14:00:08;;;;;;;3.15;1.98;;;;;;;-2.80;68.50;147967.91;13076459;22;20026;-82
2024/01/07 14:05:11;;;;;;;2.00;1.50;;;;;;;-2.64;68.84;148006.25;13057186;22;20022;-83
2024/01/07 14:10:13;;;;;;;1.77;1.13;;;;;;;-2.53;68.49;148034.31;13081989;22;20015;-83
2024/01/07 14:15:18;;;;;;;1.65;1.17;;;;;;;-2.50;67.60;148040.72;13087265;22;20480;-83
2024/01/07 14:20:21;;;;;;;1.45;1.02;;;;;;;-2.72;67.91;147987.06;13055811;22;20030;-81
2024/01/07 14:25:23;;;;;;;1.52;1.15;;;;;;;-2.65;68.48;148004.97;13086904;22;20019;-82
2024/01/07 14:30:24;;;;;;;1.50;1.10;;;;;;;-2.55;67.65;148029.22;13053229;22;20019;-83
2024/01/07 14:35:29;;;;;;;0.73;0.73;;;;;;;-2.64;68.44;148007.50;13024171;22;20019;-81
2024/01/07 14:40:30;;;;;;;1.95;1.70;;;;;;;-2.67;69.14;147999.84;13075280;22;20019;-81
2024/01/07 14:45:32;;;;;;;1.60;1.20;;;;;;;-2.65;68.04;148004.97;13097298;22;20010;-81
2024/01/07 14:50:35;;;;;;;1.98;1.00;;;;;;;-2.77;67.61;147974.31;13090534;22;20028;-82
2024/01/07 14:55:42;;;;;;;1.25;1.10;;;;;;;-2.73;68.03;147983.25;13074567;22;20045;-83
2024/01/07 15:00:44;;;;;;;1.70;1.38;;;;;;;-2.70;68.07;147990.88;13073878;22;20023;-82
2024/01/07 15:05:46;;;;;;;1.58;1.00;;;;;;;-2.61;67.90;148015.19;13075498;22;20026;-83
2024/01/07 15:10:47;;;;;;;3.03;1.60;;;;;;;-2.53;68.85;148035.59;13072353;22;20106;-84
2024/01/07 15:15:49;;;;;;;2.17;1.40;;;;;;;-2.73;68.63;147984.53;13073940;22;20351;-84
2024/01/07 15:20:51;;;;;;;2.53;1.33;;;;;;;-2.70;69.29;147992.22;13074865;22;20025;-83
2024/01/07 15:25:53;;;;;;;1.20;1.10;;;;;;;-2.71;69.48;147988.34;13048158;22;20022;-82
2024/01/07 15:30:55;;;;;;;1.77;1.20;;;;;;;-2.65;70.40;148004.97;13076702;22;20047;-82
2024/01/07 15:36:02;;;;;;;1.83;1.60;;;;;;;-2.83;71.23;147960.28;13048908;22;20026;-82
2024/01/07 15:41:04;;;;;;;3.20;1.88;;;;;;;-2.70;70.71;147992.22;13082408;22;20015;-82
2024/01/07 15:46:06;;;;;;;1.88;1.23;;;;;;;-2.71;69.88;147989.63;13025931;22;20015;-83
2024/01/07 15:51:08;;;;;;;2.22;1.60;;;;;;;-2.60;70.21;148017.72;13075192;22;20353;-83
2024/01/07 15:56:10;;;;;;;1.52;1.20;;;;;;;-2.65;70.57;148003.69;13072866;22;20290;-83
2024/01/07 16:01:11;;;;;;;1.58;1.38;;;;;;;-2.69;71.18;147994.75;13075152;22;20019;-82
2024/01/07 16:06:13;;;;;;;1.95;1.30;;;;;;;-2.56;71.32;148026.69;13079122;22;20346;-82
2024/01/07 16:11:17;;;;;;;1.95;1.48;;;;;;;-2.51;70.56;148039.44;13077870;22;20023;-82
2024/01/07 16:16:19;;;;;;;1.88;1.50;;;;;;;-2.57;71.73;148024.09;13078487;22;20050;-81
2024/01/07 16:21:22;;;;;;;3.22;2.22;;;;;;;-2.49;71.93;148044.53;13084880;22;20021;-82
2024/01/07 16:26:24;;;;;;;2.15;1.45;;;;;;;-2.62;72.28;148012.59;13065593;22;20098;-83
2024/01/07 16:31:26;;;;;;;2.17;1.48;;;;;;;-2.69;71.89;147994.75;13074961;22;20335;-82
2024/01/07 16:36:28;;;;;;;2.65;1.42;;;;;;;-2.78;71.34;147971.75;13094925;22;20035;-83
2024/01/07 16:41:30;;;;;;;1.27;1.15;;;;;;;-2.80;70.96;147966.63;13090639;22;20015;-83
2024/01/07 16:46:31;;;;;;;1.83;1.10;;;;;;;-2.77;70.17;147973.03;13106294;22;20014;-82
2024/01/07 16:51:33;;;;;;;1.52;1.30;;;;;;;-2.84;70.60;147956.41;13109264;22;20011;-81
2024/01/07 16:56:36;;;;;;;2.15;1.80;;;;;;;-2.72;70.52;147987.06;13082313;22;20087;-82
2024/01/07 17:01:37;;;;;;;1.85;1.38;;;;;;;-2.81;71.62;147965.38;13083783;22;20002;-83
2024/01/07 17:06:39;;;;;;;2.28;1.42;;;;;;;-2.69;71.17;147994.75;13110125;22;20089;-81
2024/01/07 17:11:41;;;;;;;1.98;1.42;;;;;;;-2.70;71.92;147992.22;13108366;22;20012;-83
2024/01/07 17:16:44;;;;;;;3.25;1.35;;;;;;;-2.76;71.14;147976.84;13106490;22;20014;-84
2024/01/07 17:21:46;;;;;;;1.65;1.52;;;;;;;-2.53;70.71;148035.59;13093831;22;20019;-82
2024/01/07 17:26:48;;;;;;;1.77;1.30;;;;;;;-2.56;71.15;148027.97;13106438;22;20022;-81
2024/01/07 17:31:50;;;;;;;1.73;1.52;;;;;;;-2.62;70.60;148012.59;13108703;22;20002;-81
2024/01/07 17:36:52;;;;;;;2.30;1.50;;;;;;;-2.69;71.15;147994.75;13111060;22;20070;-80
2024/01/07 17:41:54;;;;;;;1.85;1.38;;;;;;;-2.67;71.38;147999.84;13113584;22;20011;-82
2024/01/07 17:46:56;;;;;;;1.77;1.25;;;;;;;-2.65;71.77;148004.97;13087578;22;20034;-83
2024/01/07 17:51:57;;;;;;;1.77;1.38;;;;;;;-2.59;72.02;148020.28;13087145;22;20066;-82
2024/01/07 17:56:59;;;;;;;2.25;1.70;;;;;;;-2.58;72.59;148021.56;13114060;22;20014;-80
2024/01/07 18:02:03;;;;;;;2.78;1.80;;;;;;;-2.62;72.85;148011.31;13114516;22;19999;-80
2024/01/07 18:07:05;;;;;;;2.33;1.90;;;;;;;-2.63;71.94;148010.06;13114466;22;20002;-78
2024/01/07 18:12:07;;;;;;;1.88;1.52;;;;;;;-2.63;72.46;148010.06;13114305;22;20010;-81
2024/01/07 18:17:08;;;;;;;2.42;1.75;;;;;;;-2.73;73.15;147984.53;13113980;22;20029;-80
2024/01/07 18:22:10;;;;;;;3.30;2.05;;;;;;;-2.56;73.18;148027.97;13113090;22;20015;-79
2024/01/07 18:27:12;;;;;;;3.05;2.00;;;;;;;-2.54;73.52;148033.03;13113561;22;20011;-82
2024/01/07 18:32:14;;;;;;;1.95;1.65;;;;;;;-2.44;73.39;148056.03;13086679;22;20569;-81
2024/01/07 18:37:16;;;;;;;3.50;2.30;;;;;;;-2.53;73.23;148035.59;13087406;22;20056;-80
2024/01/07 18:42:18;;;;;;;2.67;2.17;;;;;;;-2.59;73.71;148020.28;13086995;22;20003;-82
2024/01/07 18:47:20;;;;;;;3.05;2.05;;;;;;;-2.72;74.57;147985.81;13112791;22;20009;-79
2024/01/07 18:52:22;;;;;;;2.90;2.33;;;;;;;-2.60;74.09;148017.72;13111456;22;20062;-80
2024/01/07 18:57:24;;;;;;;3.05;1.88;;;;;;;-2.61;73.44;148015.19;13112663;22;20045;-81
2024/01/07 19:02:25;;;;;;;2.38;1.73;;;;;;;-2.55;74.59;148030.50;13084431;22;20015;-82
2024/01/07 19:07:27;;;;;;;2.30;1.65;;;;;;;-2.48;73.50;148047.09;13112782;22;20041;-79
2024/01/07 19:12:29;;;;;;;2.97;2.13;;;;;;;-2.60;74.31;148017.72;13113303;22;20003;-80
2024/01/07 19:17:31;;;;;;;2.45;2.22;;;;;;;-2.54;74.85;148033.03;13112628;22;20010;-82
2024/01/07 19:22:34;;;;;;;2.50;1.77;;;;;;;-2.51;74.64;148039.44;13112676;22;19995;-82
2024/01/07 19:27:37;;;;;;;2.80;2.03;;;;;;;-2.53;74.20;148034.31;13086394;22;20015;-78
2024/01/07 19:32:40;;;;;;;3.60;2.13;;;;;;;-2.61;73.65;148015.19;13112603;22;20031;-82
2024/01/07 19:37:43;;;;;;;3.17;2.15;;;;;;;-2.61;73.00;148013.91;13085823;22;20052;-81
2024/01/07 19:42:45;;;;;;;1.88;1.63;;;;;;;-2.63;72.49;148008.78;13110682;22;20011;-83
2024/01/07 19:47:47;;;;;;;2.75;1.83;;;;;;;-2.69;72.88;147993.47;13111466;22;20019;-83
2024/01/07 19:52:50;;;;;;;2.47;1.75;;;;;;;-2.78;74.12;147970.50;13085026;22;20055;-81
2024/01/07 19:57:51;;;;;;;1.80;1.60;;;;;;;-2.65;73.55;148004.97;13084876;22;20000;-78
2024/01/07 20:02:53;;;;;;;3.00;1.52;;;;;;;-2.67;73.51;147999.84;13111706;22;19999;-80
2024/01/07 20:07:57;;;;;;;1.92;1.60;;;;;;;-2.70;73.10;147992.22;13111781;22;20009;-80
2024/01/07 20:13:01;;;;;;;1.88;1.58;;;;;;;-2.78;73.21;147970.50;13089504;22;20011;-82
2024/01/07 20:18:03;;;;;;;2.20;2.00;;;;;;;-2.70;71.85;147992.22;13059228;22;20023;-83
2024/01/07 20:23:05;;;;;;;2.63;1.98;;;;;;;-2.92;72.15;147937.28;13084818;22;20094;-82
2024/01/07 20:28:07;;;;;;;2.10;1.77;;;;;;;-2.85;71.54;147953.88;13086610;22;20042;-84
2024/01/07 20:33:10;;;;;;;3.22;1.58;;;;;;;-2.76;70.34;147976.84;13053418;22;20019;-83
2024/01/07 20:38:11;;;;;;;1.65;1.40;;;;;;;-2.95;70.65;147929.63;13080180;22;20064;-83
2024/01/07 20:43:13;;;;;;;2.05;1.30;;;;;;;-2.87;70.37;147948.78;13049287;22;20019;-82
2024/01/07 20:48:15;;;;;;;2.42;1.48;;;;;;;-3.01;71.03;147913.00;13073944;22;20023;-83
2024/01/07 20:53:19;;;;;;;2.63;1.58;;;;;;;-2.99;70.55;147919.41;13074793;22;20022;-81
2024/01/07 20:58:21;;;;;;;2.47;1.83;;;;;;;-3.12;71.02;147887.47;13072493;22;20019;-82
2024/01/07 21:03:24;;;;;;;2.75;1.75;;;;;;;-3.19;72.13;147868.31;13095301;22;20022;-83
2024/01/07 21:08:28;;;;;;;2.50;1.77;;;;;;;-3.25;72.73;147854.28;13071309;22;20034;-83
2024/01/07 21:13:30;;;;;;;2.65;1.70;;;;;;;-3.18;72.75;147872.19;13098531;22;20012;-83
2024/01/07 21:18:32;;;;;;;2.92;2.08;;;;;;;-3.17;73.18;147873.44;13071744;22;20015;-82
2024/01/07 21:23:34;;;;;;;3.00;1.92;;;;;;;-3.15;74.03;147878.53;13091615;22;20011;-83
2024/01/07 21:28:38;;;;;;;2.50;1.92;;;;;;;-3.12;74.86;147886.19;13054642;22;20023;-83
2024/01/07 21:33:40;;;;;;;3.03;2.20;;;;;;;-3.30;76.22;147841.53;13080020;22;20012;-83
2024/01/07 21:38:43;;;;;;;2.63;2.30;;;;;;;-3.38;77.35;147822.38;13085039;22;20116;-83
2024/01/07 21:43:44;;;;;;;2.50;2.03;;;;;;;-3.33;75.59;147833.84;13032848;22;20016;-82
2024/01/07 21:48:48;;;;;;;2.78;1.90;;;;;;;-3.36;75.14;147826.22;13078196;22;20023;-82
2024/01/07 21:53:49;;;;;;;2.17;1.85;;;;;;;-3.58;74.73;147772.63;13048553;22;20015;-82
2024/01/07 21:58:51;;;;;;;1.45;1.33;;;;;;;-3.62;73.97;147762.41;13083893;22;20016;-81
2024/01/07 22:03:53;;;;;;;2.25;1.50;;;;;;;-3.60;73.01;147767.47;13103552;22;20026;-82
2024/01/07 22:08:55;;;;;;;1.60;1.38;;;;;;;-3.58;71.02;147771.34;13082303;22;20030;-83
2024/01/07 22:13:56;;;;;;;1.83;1.45;;;;;;;-3.61;71.01;147763.66;13047202;22;20461;-84
2024/01/07 22:18:58;;;;;;;2.65;1.90;;;;;;;-3.52;70.08;147786.63;13072919;22;20018;-84
2024/01/07 22:24:00;;;;;;;3.55;1.80;;;;;;;-3.51;71.10;147787.91;13081721;22;20481;-84
2024/01/07 22:29:02;;;;;;;2.65;1.58;;;;;;;-3.37;70.58;147824.91;13047508;22;20072;-84
2024/01/07 22:34:04;;;;;;;1.58;1.48;;;;;;;-3.28;70.76;147846.59;13074275;22;20067;-81
2024/01/07 22:39:10;;;;;;;2.10;1.70;;;;;;;-3.34;70.64;147832.56;13071363;22;20019;-82
2024/01/07 22:44:14;;;;;;;2.53;1.92;;;;;;;-3.27;70.75;147847.94;13070956;22;20011;-82
2024/01/07 22:49:17;;;;;;;3.15;1.58;;;;;;;-3.47;70.53;147798.13;13043448;22;20098;-82
2024/01/07 22:54:19;;;;;;;2.25;1.73;;;;;;;-3.50;70.87;147790.44;13073278;22;20015;-82
2024/01/07 22:59:20;;;;;;;1.80;1.42;;;;;;;-3.50;71.16;147791.72;13042434;22;20475;-83
2024/01/07 23:04:22;;;;;;;4.10;1.73;;;;;;;-3.50;71.29;147790.44;13069951;22;20015;-82